Time;durP1;ratioP1;P1;durP2;ratioP2;P2;SDS_P1;SDS_P2;PMS_P1;PMS_P2;Temp;Humidity;BMP_temperature;BMP_pressure;BME280_temperature;BME280_humidity;BME280_pressure;Samples;Min_cycle;Max_cycle;Signal;HPM_P1;HPM_P2
2023/11/06 00:02:03;;;;;;;;;;;16.80;95.40;;;;;;6127132;23;19908;-78
2023/11/06 00:04:29;;;;;;;;;;;16.80;95.20;;;;;;6127137;23;20249;-78
2023/11/06 00:06:55;;;;;;;;;;;17.00;95.60;;;;;;6127221;23;19901;-78
2023/11/06 00:09:21;;;;;;;;;;;16.90;95.60;;;;;;6127224;23;19900;-78
2023/11/06 00:11:47;;;;;;;;;;;16.90;95.40;;;;;;6127647;23;20240;-73
2023/11/06 00:14:13;;;;;;;;;;;16.80;95.30;;;;;;6127115;23;19971;-73
2023/11/06 00:16:38;;;;;;;;;;;16.90;95.50;;;;;;6101126;23;20324;-73
2023/11/06 00:19:04;;;;;;;;;;;16.80;95.30;;;;;;6101163;23;19936;-73
2023/11/06 00:21:31;;;;;;;;;;;16.90;95.50;;;;;;6127024;23;19901;-73
2023/11/06 00:23:56;;;;;;;;;;;16.90;95.40;;;;;;6126936;23;20245;-73
2023/11/06 00:26:22;;;;;;;;;;;17.00;95.50;;;;;;6127490;23;19901;-73
2023/11/06 00:28:48;;;;;;;;;;;16.80;95.30;;;;;;6126901;23;19901;-73
2023/11/06 00:31:13;;;;;;;;;;;16.80;95.30;;;;;;6127084;23;19901;-73
2023/11/06 00:33:39;;;;;;;;;;;16.80;95.30;;;;;;6126909;23;20317;-73
2023/11/06 00:36:05;;;;;;;;;;;16.70;95.40;;;;;;6126949;23;19956;-73
2023/11/06 00:38:30;;;;;;;;;;;16.90;95.10;;;;;;6136526;23;19901;-78
2023/11/06 00:40:56;;;;;;;;;;;16.80;95.20;;;;;;6126934;23;19908;-78
2023/11/06 00:43:21;;;;;;;;;;;16.80;95.30;;;;;;6126865;23;20009;-78
2023/11/06 00:45:47;;;;;;;;;;;16.80;95.40;;;;;;6126856;23;19924;-78
2023/11/06 00:48:13;;;;;;;;;;;16.80;95.30;;;;;;6126889;23;19901;-78
2023/11/06 00:50:38;;;;;;;;;;;16.80;95.20;;;;;;6126754;23;19955;-76
2023/11/06 00:53:04;;;;;;;;;;;16.70;95.30;;;;;;6126680;23;19976;-78
2023/11/06 00:55:29;;;;;;;;;;;16.80;95.20;;;;;;6127025;23;19905;-78
2023/11/06 00:57:55;;;;;;;;;;;16.70;95.20;;;;;;6126641;23;19976;-78
2023/11/06 01:00:23;;;;;;;;;;;16.70;95.20;;;;;;6126679;23;20345;-79
2023/11/06 01:02:49;;;;;;;;;;;16.80;95.20;;;;;;6126431;23;19904;-78
2023/11/06 01:05:15;;;;;;;;;;;16.80;95.40;;;;;;6126745;23;20355;-73
2023/11/06 01:07:40;;;;;;;;;;;16.80;95.40;;;;;;6126724;23;19901;-73
2023/11/06 01:10:07;;;;;;;;;;;16.80;95.60;;;;;;6126716;23;19936;-71
2023/11/06 01:12:33;;;;;;;;;;;16.70;95.30;;;;;;6126654;23;19900;-73
2023/11/06 01:14:59;;;;;;;;;;;16.80;95.60;;;;;;6126518;23;20304;-73
2023/11/06 01:17:25;;;;;;;;;;;16.80;95.70;;;;;;6126929;23;19900;-73
2023/11/06 01:19:51;;;;;;;;;;;16.70;95.60;;;;;;6126502;23;20244;-73
2023/11/06 01:22:16;;;;;;;;;;;16.80;95.80;;;;;;6127153;23;19900;-78
2023/11/06 01:24:42;;;;;;;;;;;16.80;95.70;;;;;;6126387;23;20332;-78
2023/11/06 01:27:09;;;;;;;;;;;16.70;95.60;;;;;;6126574;23;20313;-78
2023/11/06 01:29:35;;;;;;;;;;;16.70;95.60;;;;;;6126543;23;19992;-77
2023/11/06 01:32:01;;;;;;;;;;;16.70;95.70;;;;;;6126375;23;19901;-77
2023/11/06 01:34:27;;;;;;;;;;;16.80;95.80;;;;;;6126366;23;19901;-71
2023/11/06 01:36:52;;;;;;;;;;;16.70;95.70;;;;;;6100378;23;19901;-72
2023/11/06 01:39:18;;;;;;;;;;;16.80;95.70;;;;;;6126100;23;19913;-72
2023/11/06 01:41:45;;;;;;;;;;;16.70;95.70;;;;;;6126182;23;19987;-72
2023/11/06 01:44:11;;;;;;;;;;;16.70;95.80;;;;;;6125886;23;20043;-72
2023/11/06 01:46:37;;;;;;;;;;;16.70;95.80;;;;;;6126142;23;20321;-72
2023/11/06 01:49:03;;;;;;;;;;;16.70;95.80;;;;;;6126091;23;19901;-72
2023/11/06 01:51:30;;;;;;;;;;;16.70;95.50;;;;;;6126752;23;19905;-71
2023/11/06 01:53:56;;;;;;;;;;;16.70;95.80;;;;;;6126140;23;19908;-72
2023/11/06 01:56:21;;;;;;;;;;;16.70;95.80;;;;;;6126247;23;19994;-72
2023/11/06 01:58:47;;;;;;;;;;;16.70;95.70;;;;;;6126043;23;19908;-72
2023/11/06 02:01:12;;;;;;;;;;;16.70;94.90;;;;;;6126325;23;19936;-72
2023/11/06 02:03:39;;;;;;;;;;;16.70;95.80;;;;;;6126460;23;20044;-77
2023/11/06 02:06:05;;;;;;;;;;;16.70;95.80;;;;;;6126075;23;19901;-77
2023/11/06 02:08:32;;;;;;;;;;;16.70;95.30;;;;;;6126072;23;20329;-77
2023/11/06 02:10:59;;;;;;;;;;;16.70;95.70;;;;;;6126052;23;19900;-77
2023/11/06 02:13:25;;;;;;;;;;;16.60;95.50;;;;;;6125629;23;19900;-77
2023/11/06 02:15:51;;;;;;;;;;;16.70;95.70;;;;;;6126093;23;19901;-77
2023/11/06 02:18:17;;;;;;;;;;;16.90;95.80;;;;;;6125898;23;19948;-77
2023/11/06 02:20:42;;;;;;;;;;;16.60;95.60;;;;;;6126454;23;19901;-72
2023/11/06 02:23:08;;;;;;;;;;;16.70;95.80;;;;;;6125761;23;19912;-72
2023/11/06 02:25:35;;;;;;;;;;;16.70;95.70;;;;;;6126375;23;19901;-72
2023/11/06 02:28:01;;;;;;;;;;;16.60;95.50;;;;;;6126089;23;20233;-72
2023/11/06 02:30:27;;;;;;;;;;;16.60;95.60;;;;;;6126466;23;19912;-76
2023/11/06 02:32:52;;;;;;;;;;;16.70;95.80;;;;;;6126137;23;19901;-77
2023/11/06 02:35:18;;;;;;;;;;;16.80;95.70;;;;;;6125739;23;20047;-77
2023/11/06 02:37:43;;;;;;;;;;;16.70;95.80;;;;;;6125789;23;19901;-77
2023/11/06 02:40:12;;;;;;;;;;;16.70;95.70;;;;;;6125487;23;19917;-77
2023/11/06 02:42:37;;;;;;;;;;;16.60;95.50;;;;;;6125734;23;20219;-77
2023/11/06 02:45:04;;;;;;;;;;;16.60;95.60;;;;;;6125641;23;20452;-77
2023/11/06 02:47:30;;;;;;;;;;;16.60;95.50;;;;;;6100354;23;19905;-77
2023/11/06 02:49:55;;;;;;;;;;;16.60;95.30;;;;;;6125410;23;19956;-77
2023/11/06 02:52:21;;;;;;;;;;;16.50;95.40;;;;;;6125594;23;19908;-77
2023/11/06 02:54:46;;;;;;;;;;;16.60;95.30;;;;;;6135078;23;19901;-77
2023/11/06 02:57:12;;;;;;;;;;;16.60;95.40;;;;;;6125611;23;19901;-77
2023/11/06 02:59:37;;;;;;;;;;;;;;;;;;6125728;23;20237;-77
2023/11/06 03:02:03;;;;;;;;;;;16.60;95.40;;;;;;6125586;23;19952;-77
2023/11/06 03:04:28;;;;;;;;;;;16.60;95.60;;;;;;6125878;23;19913;-77
2023/11/06 03:06:54;;;;;;;;;;;16.60;95.60;;;;;;6125532;23;20329;-77
2023/11/06 03:09:19;;;;;;;;;;;16.60;95.60;;;;;;6125565;23;19936;-76
2023/11/06 03:11:45;;;;;;;;;;;16.50;95.40;;;;;;6125534;23;20309;-78
2023/11/06 03:14:10;;;;;;;;;;;16.40;95.30;;;;;;6125548;23;19901;-78
2023/11/06 03:16:38;;;;;;;;;;;16.60;95.40;;;;;;6125868;23;19907;-79
2023/11/06 03:19:05;;;;;;;;;;;16.60;95.20;;;;;;6125511;23;20152;-79
2023/11/06 03:21:31;;;;;;;;;;;16.60;95.50;;;;;;6125539;23;19943;-79
2023/11/06 03:23:56;;;;;;;;;;;16.60;95.50;;;;;;6125464;23;19909;-79
2023/11/06 03:26:22;;;;;;;;;;;16.70;95.50;;;;;;6125431;23;19907;-79
2023/11/06 03:28:48;;;;;;;;;;;16.60;95.50;;;;;;6125682;23;19956;-78
2023/11/06 03:31:13;;;;;;;;;;;16.60;95.30;;;;;;6125454;23;19943;-78
2023/11/06 03:33:38;;;;;;;;;;;16.50;95.30;;;;;;6125521;23;19905;-78
2023/11/06 03:36:04;;;;;;;;;;;16.70;95.40;;;;;;6125486;23;19901;-78
2023/11/06 03:38:30;;;;;;;;;;;16.60;95.20;;;;;;6125079;23;19908;-78
2023/11/06 03:40:55;;;;;;;;;;;16.60;95.40;;;;;;6125510;23;20348;-78
2023/11/06 03:43:21;;;;;;;;;;;16.60;95.40;;;;;;6125181;23;19908;-78
2023/11/06 03:45:46;;;;;;;;;;;16.60;95.20;;;;;;6125852;23;20376;-73
2023/11/06 03:48:12;;;;;;;;;;;16.60;95.30;;;;;;6125370;23;19907;-73
2023/11/06 03:50:42;;;;;;;;;;;16.50;95.10;;;;;;6125341;23;19905;-74
2023/11/06 03:53:08;;;;;;;;;;;16.50;95.30;;;;;;6135148;23;19908;-71
2023/11/06 03:55:34;;;;;;;;;;;16.60;95.40;;;;;;6125799;23;19900;-73
2023/11/06 03:58:00;;;;;;;;;;;16.60;95.40;;;;;;6126028;23;19900;-77
2023/11/06 04:00:26;;;;;;;;;;;16.60;95.20;;;;;;6125525;23;19976;-77
2023/11/06 04:02:52;;;;;;;;;;;16.50;95.10;;;;;;6125078;23;19948;-77
2023/11/06 04:05:18;;;;;;;;;;;16.70;95.30;;;;;;6125974;23;19908;-77
2023/11/06 04:07:44;;;;;;;;;;;16.60;95.20;;;;;;6125789;23;19901;-77
2023/11/06 04:10:15;;;;;;;;;;;16.70;95.30;;;;;;6125746;23;19908;-77
2023/11/06 04:12:41;;;;;;;;;;;16.50;95.10;;;;;;6125661;23;19955;-72
2023/11/06 04:15:07;;;;;;;;;;;16.50;95.20;;;;;;6125798;23;20021;-71
2023/11/06 04:17:34;;;;;;;;;;;;;;;;;;6125279;23;19907;-73
2023/11/06 04:19:59;;;;;;;;;;;16.50;94.00;;;;;;6125353;23;19901;-74
2023/11/06 04:22:25;;;;;;;;;;;16.50;95.20;;;;;;6125143;23;19908;-73
2023/11/06 04:24:51;;;;;;;;;;;16.40;95.10;;;;;;6125149;23;19909;-78
2023/11/06 04:27:16;;;;;;;;;;;16.40;95.00;;;;;;6125183;23;19905;-79
2023/11/06 04:29:42;;;;;;;;;;;16.50;95.10;;;;;;6125984;23;19900;-78
2023/11/06 04:32:07;;;;;;;;;;;16.40;95.10;;;;;;6127028;23;19901;-79
2023/11/06 04:34:33;;;;;;;;;;;16.50;95.10;;;;;;6126814;23;20222;-79
2023/11/06 04:36:58;;;;;;;;;;;16.40;95.10;;;;;;6126956;23;19905;-79
2023/11/06 04:39:24;;;;;;;;;;;16.50;95.20;;;;;;6127159;23;19913;-79
2023/11/06 04:41:49;;;;;;;;;;;16.40;95.00;;;;;;6127380;23;19947;-73
2023/11/06 04:44:15;;;;;;;;;;;16.50;95.20;;;;;;6126802;23;19909;-73
2023/11/06 04:46:41;;;;;;;;;;;16.40;95.10;;;;;;6126985;23;19951;-73
2023/11/06 04:49:07;;;;;;;;;;;16.50;95.10;;;;;;6127477;23;19908;-73
2023/11/06 04:51:33;;;;;;;;;;;16.40;94.90;;;;;;6127383;23;19932;-73
2023/11/06 04:53:59;;;;;;;;;;;16.40;94.90;;;;;;6127427;23;19953;-71
2023/11/06 04:56:25;;;;;;;;;;;16.50;95.10;;;;;;6126980;23;20308;-72
2023/11/06 04:58:51;;;;;;;;;;;16.40;95.10;;;;;;6127260;23;19901;-73
2023/11/06 05:06:58;;;;;;;;;;;16.50;92.90;;;;;;6078438;23;19911;-72
2023/11/06 05:09:24;;;;;;;;;;;16.50;92.80;;;;;;6069306;23;20283;-72
2023/11/06 05:11:49;;;;;;;;;;;16.50;95.10;;;;;;6068606;23;19977;-70
2023/11/06 05:14:15;;;;;;;;;;;16.40;95.00;;;;;;6068612;23;19937;-72
2023/11/06 05:16:40;;;;;;;;;;;16.40;95.00;;;;;;6068656;23;19901;-71
2023/11/06 05:19:06;;;;;;;;;;;16.50;95.00;;;;;;6068552;23;19905;-72
2023/11/06 05:21:31;;;;;;;;;;;16.40;95.20;;;;;;6068620;23;19980;-72
2023/11/06 05:23:57;;;;;;;;;;;16.40;95.20;;;;;;6068623;23;20237;-72
2023/11/06 05:26:22;;;;;;;;;;;16.40;95.10;;;;;;6068511;23;19901;-72
2023/11/06 05:28:48;;;;;;;;;;;16.40;95.00;;;;;;6068803;23;19906;-72
2023/11/06 05:31:14;;;;;;;;;;;16.40;95.00;;;;;;6068513;23;19984;-71
2023/11/06 05:33:40;;;;;;;;;;;16.40;95.10;;;;;;6068464;23;20291;-72
2023/11/06 05:36:09;;;;;;;;;;;16.30;94.90;;;;;;6068906;23;19929;-72
2023/11/06 05:38:35;;;;;;;;;;;16.40;94.20;;;;;;6068395;23;19924;-71
2023/11/06 05:41:00;;;;;;;;;;;16.40;95.20;;;;;;6068126;23;20273;-72
2023/11/06 05:43:26;;;;;;;;;;;16.40;95.10;;;;;;6068279;23;19909;-72
2023/11/06 05:45:51;;;;;;;;;;;16.40;95.20;;;;;;6068274;23;19908;-72
2023/11/06 05:48:17;;;;;;;;;;;16.40;95.10;;;;;;6068596;23;19925;-76
2023/11/06 05:50:43;;;;;;;;;;;16.40;95.00;;;;;;6068347;23;19906;-76
2023/11/06 05:53:08;;;;;;;;;;;16.50;95.10;;;;;;6068254;23;20377;-76
2023/11/06 05:55:34;;;;;;;;;;;16.40;95.10;;;;;;6068252;23;19902;-76
2023/11/06 05:57:59;;;;;;;;;;;16.30;95.00;;;;;;6068275;23;20237;-76
2023/11/06 06:00:24;;;;;;;;;;;16.40;95.20;;;;;;6068247;23;19905;-76
2023/11/06 06:02:50;;;;;;;;;;;16.40;95.00;;;;;;6082053;23;19920;-76
2023/11/06 06:05:16;;;;;;;;;;;16.40;95.20;;;;;;6097108;23;20305;-72
2023/11/06 06:07:41;;;;;;;;;;;16.30;95.00;;;;;;6096850;23;19936;-72
2023/11/06 06:10:07;;;;;;;;;;;16.40;95.20;;;;;;6097494;23;20243;-72
2023/11/06 06:12:33;;;;;;;;;;;16.40;94.30;;;;;;6096775;23;20236;-72
2023/11/06 06:14:59;;;;;;;;;;;16.40;95.10;;;;;;6096900;23;19907;-71
2023/11/06 06:17:25;;;;;;;;;;;16.40;95.30;;;;;;6096662;23;19905;-76
2023/11/06 06:19:50;;;;;;;;;;;16.40;95.20;;;;;;6096774;23;19924;-77
2023/11/06 06:22:16;;;;;;;;;;;16.30;95.10;;;;;;6096732;23;20343;-77
2023/11/06 06:24:42;;;;;;;;;;;16.30;95.00;;;;;;6099744;23;19957;-76
2023/11/06 06:27:07;;;;;;;;;;;16.50;95.20;;;;;;6101543;23;19901;-76
2023/11/06 06:29:33;;;;;;;;;;;16.40;95.30;;;;;;6096773;23;19909;-77
2023/11/06 06:31:58;;;;;;;;;;;16.30;95.10;;;;;;6097280;23;19908;-77
2023/11/06 06:34:24;;;;;;;;;;;16.30;95.20;;;;;;6096673;23;19908;-77
2023/11/06 06:36:49;;;;;;;;;;;16.40;95.20;;;;;;6096693;23;19901;-77
2023/11/06 06:39:15;;;;;;;;;;;16.50;95.40;;;;;;6096574;23;19906;-76
2023/11/06 06:41:41;;;;;;;;;;;16.40;95.30;;;;;;6096653;23;20233;-78
2023/11/06 06:44:06;;;;;;;;;;;16.30;95.10;;;;;;6096533;23;19909;-78
2023/11/06 06:46:32;;;;;;;;;;;16.40;95.20;;;;;;6096603;23;20248;-76
2023/11/06 06:48:57;;;;;;;;;;;16.40;95.20;;;;;;6097187;23;19968;-76
2023/11/06 06:51:23;;;;;;;;;;;16.30;95.30;;;;;;6096922;23;19909;-76
2023/11/06 06:53:49;;;;;;;;;;;16.30;95.00;;;;;;6096477;23;20379;-74
2023/11/06 06:56:15;;;;;;;;;;;16.30;95.00;;;;;;6096625;23;19961;-77
2023/11/06 06:58:40;;;;;;;;;;;16.30;95.10;;;;;;6096500;23;19901;-76
2023/11/06 07:01:08;;;;;;;;;;;16.20;94.90;;;;;;6097769;23;19901;-75
2023/11/06 07:03:36;;;;;;;;;;;16.30;95.00;;;;;;6096364;23;19920;-76
2023/11/06 07:06:06;;;;;;;;;;;16.40;95.10;;;;;;6096661;23;19933;-76
2023/11/06 07:08:32;;;;;;;;;;;16.30;94.90;;;;;;6106631;23;19905;-77
2023/11/06 07:10:58;;;;;;;;;;;16.30;95.20;;;;;;6096404;23;20316;-77
2023/11/06 07:13:24;;;;;;;;;;;16.30;95.10;;;;;;6071437;23;19925;-76
2023/11/06 07:15:50;;;;;;;;;;;16.40;95.00;;;;;;6097098;23;19908;-75
2023/11/06 07:18:18;;;;;;;;;;;16.30;95.10;;;;;;6096729;23;20244;-76
2023/11/06 07:20:44;;;;;;;;;;;16.30;95.00;;;;;;6096400;23;19976;-76
2023/11/06 07:23:10;;;;;;;;;;;16.30;95.10;;;;;;6096382;23;19936;-77
2023/11/06 07:25:36;;;;;;;;;;;16.30;95.10;;;;;;6102475;23;19923;-76
2023/11/06 07:28:01;;;;;;;;;;;16.30;95.00;;;;;;6096489;23;19901;-80
2023/11/06 07:30:27;;;;;;;;;;;16.20;95.00;;;;;;6097603;23;19939;-76
2023/11/06 07:32:52;;;;;;;;;;;16.20;94.90;;;;;;6096363;23;19971;-74
2023/11/06 07:35:18;;;;;;;;;;;16.40;95.00;;;;;;6096295;23;19901;-75
2023/11/06 07:37:43;;;;;;;;;;;16.30;95.10;;;;;;6096420;23;19901;-77
2023/11/06 07:40:11;;;;;;;;;;;16.30;95.00;;;;;;6096438;23;20237;-77
2023/11/06 07:42:37;;;;;;;;;;;16.30;94.70;;;;;;6096908;23;19964;-76
2023/11/06 07:45:03;;;;;;;;;;;16.20;94.80;;;;;;6096543;23;19909;-78
2023/11/06 07:47:28;;;;;;;;;;;16.30;94.60;;;;;;6097004;23;19908;-77
2023/11/06 07:49:54;;;;;;;;;;;16.40;95.00;;;;;;6096455;23;19905;-77
2023/11/06 07:52:19;;;;;;;;;;;16.30;94.90;;;;;;6096429;23;19901;-78
2023/11/06 07:54:45;;;;;;;;;;;16.30;94.90;;;;;;6096377;23;19909;-78
2023/11/06 07:57:11;;;;;;;;;;;16.20;94.70;;;;;;6096450;23;19901;-78
2023/11/06 07:59:40;;;;;;;;;;;16.20;94.70;;;;;;6096891;23;20373;-77
2023/11/06 08:02:10;;;;;;;;;;;16.20;92.10;;;;;;6095950;23;20289;-77
2023/11/06 08:04:39;;;;;;;;;;;16.30;92.30;;;;;;6097609;23;19920;-77
2023/11/06 08:07:05;;;;;;;;;;;16.20;92.40;;;;;;6098205;23;20328;-77
2023/11/06 08:09:31;;;;;;;;;;;16.20;92.50;;;;;;6098267;23;19957;-77
2023/11/06 08:11:56;;;;;;;;;;;16.20;92.40;;;;;;6098501;23;19901;-77
2023/11/06 08:14:21;;;;;;;;;;;16.10;92.60;;;;;;6098665;23;19905;-76
2023/11/06 08:16:47;;;;;;;;;;;16.10;92.50;;;;;;6098019;23;20240;-76
2023/11/06 08:19:12;;;;;;;;;;;16.10;92.50;;;;;;6098058;23;19901;-76
2023/11/06 08:21:38;;;;;;;;;;;16.10;92.60;;;;;;6097977;23;19901;-76
2023/11/06 08:24:04;;;;;;;;;;;16.20;92.60;;;;;;6097861;23;20384;-77
2023/11/06 08:26:30;;;;;;;;;;;16.10;92.30;;;;;;6098462;23;19980;-77
2023/11/06 08:28:55;;;;;;;;;;;16.10;92.60;;;;;;6097906;23;19988;-76
2023/11/06 08:31:21;;;;;;;;;;;16.10;92.60;;;;;;6097930;23;19937;-76
2023/11/06 08:33:47;;;;;;;;;;;16.10;92.60;;;;;;6098512;23;19902;-76
2023/11/06 08:36:13;;;;;;;;;;;16.20;92.60;;;;;;6098080;23;20277;-79
2023/11/06 08:38:39;;;;;;;;;;;16.10;92.50;;;;;;6098490;23;19908;-76
2023/11/06 08:41:08;;;;;;;;;;;16.10;92.70;;;;;;6098319;23;19905;-79
2023/11/06 08:43:35;;;;;;;;;;;16.20;90.90;;;;;;6098077;23;19944;-80
2023/11/06 08:46:02;;;;;;;;;;;16.30;92.80;;;;;;6098190;23;20412;-79
2023/11/06 08:48:28;;;;;;;;;;;16.20;92.80;;;;;;6098816;23;19976;-78
2023/11/06 08:50:54;;;;;;;;;;;16.30;92.70;;;;;;6105014;23;19905;-76
2023/11/06 08:53:20;;;;;;;;;;;16.30;92.70;;;;;;6098432;23;20011;-78
2023/11/06 08:55:47;;;;;;;;;;;16.10;92.50;;;;;;6098325;23;20293;-78
2023/11/06 08:58:16;;;;;;;;;;;16.20;92.70;;;;;;6097774;23;19911;-76
2023/11/06 09:00:45;;;;;;;;;;;16.20;92.70;;;;;;6097521;23;19955;-78
2023/11/06 09:03:12;;;;;;;;;;;16.20;92.50;;;;;;6097284;23;19913;-79
2023/11/06 09:05:39;;;;;;;;;;;16.20;92.70;;;;;;6097641;23;20312;-77
2023/11/06 09:08:05;;;;;;;;;;;16.20;92.80;;;;;;6098424;23;19929;-78
2023/11/06 09:10:31;;;;;;;;;;;16.30;92.70;;;;;;6098358;23;20265;-78
2023/11/06 09:12:58;;;;;;;;;;;16.20;92.70;;;;;;6097904;23;20273;-81
2023/11/06 09:15:24;;;;;;;;;;;16.20;92.50;;;;;;6097879;23;19905;-77
2023/11/06 09:17:50;;;;;;;;;;;16.30;92.80;;;;;;6097946;23;20010;-76
2023/11/06 09:20:16;;;;;;;;;;;16.60;92.80;;;;;;6097660;23;20039;-76
2023/11/06 09:22:42;;;;;;;;;;;16.30;92.70;;;;;;6097440;23;19902;-76
2023/11/06 09:25:08;;;;;;;;;;;16.40;92.40;;;;;;6097807;23;19909;-76
2023/11/06 09:27:34;;;;;;;;;;;16.70;92.60;;;;;;6097373;23;19931;-76
2023/11/06 09:30:00;;;;;;;;;;;16.40;92.70;;;;;;6097269;23;19948;-77
2023/11/06 09:32:26;;;;;;;;;;;16.40;92.60;;;;;;6097842;23;20237;-75
2023/11/06 09:34:52;;;;;;;;;;;16.50;92.70;;;;;;6097747;23;19902;-76
2023/11/06 09:37:18;;;;;;;;;;;16.20;92.40;;;;;;6097348;23;19907;-76
2023/11/06 09:39:44;;;;;;;;;;;16.70;92.90;;;;;;6097207;23;19980;-79
2023/11/06 09:42:12;;;;;;;;;;;16.50;93.00;;;;;;6097773;23;19929;-76
2023/11/06 09:44:38;;;;;;;;;;;16.90;90.40;;;;;;6097632;23;19915;-76
2023/11/06 09:47:07;;;;;;;;;;;16.80;92.90;;;;;;6097431;23;20334;-76
2023/11/06 09:49:43;;;;;;;;;;;16.80;92.60;;;;;;6097197;23;19901;-76
2023/11/06 09:52:10;;;;;;;;;;;16.80;90.40;;;;;;6097141;23;19901;-76
2023/11/06 09:54:37;;;;;;;;;;;16.60;92.80;;;;;;6097539;23;19912;-76
2023/11/06 09:57:03;;;;;;;;;;;16.70;92.70;;;;;;6097540;23;20228;-76
2023/11/06 09:59:29;;;;;;;;;;;16.80;92.30;;;;;;6097611;23;19901;-73
2023/11/06 10:01:55;;;;;;;;;;;16.70;92.40;;;;;;6100599;23;19912;-75
2023/11/06 10:04:21;;;;;;;;;;;16.70;92.70;;;;;;6112628;23;19909;-74
2023/11/06 10:06:50;;;;;;;;;;;16.70;92.60;;;;;;6113125;23;19933;-81
2023/11/06 10:09:23;;;;;;;;;;;16.80;90.30;;;;;;6102935;23;19902;-79
2023/11/06 10:11:50;;;;;;;;;;;17.10;90.40;;;;;;6097038;23;19909;-82
2023/11/06 10:14:16;;;;;;;;;;;16.90;92.70;;;;;;6097922;23;19902;-82
2023/11/06 10:16:42;;;;;;;;;;;16.60;92.60;;;;;;6097463;23;19925;-82
2023/11/06 10:19:13;;;;;;;;;;;16.90;92.60;;;;;;6097424;23;20244;-83
2023/11/06 10:21:40;;;;;;;;;;;16.90;90.40;;;;;;6099099;23;19923;-76
2023/11/06 10:24:07;;;;;;;;;;;16.90;92.30;;;;;;6101860;23;19916;-77
2023/11/06 10:26:33;;;;;;;;;;;16.90;92.20;;;;;;6098834;23;19901;-77
2023/11/06 10:29:09;;;;;;;;;;;17.00;92.90;;;;;;6099411;23;19925;-76
2023/11/06 10:31:56;;;;;;;;;;;17.10;90.20;;;;;;6097785;23;19985;-73
2023/11/06 10:34:27;;;;;;;;;;;17.00;92.80;;;;;;6100800;23;19902;-73
2023/11/06 10:37:03;;;;;;;;;;;16.90;90.20;;;;;;6077362;23;19908;-74
2023/11/06 10:39:29;;;;;;;;;;;16.90;90.40;;;;;;6098899;23;19905;-73
2023/11/06 10:42:01;;;;;;;;;;;16.90;92.80;;;;;;6097501;23;19905;-72
2023/11/06 10:44:26;;;;;;;;;;;16.90;90.40;;;;;;6097519;23;19916;-74
2023/11/06 10:46:53;;;;;;;;;;;16.80;92.70;;;;;;6098505;23;19901;-73
2023/11/06 10:49:27;;;;;;;;;;;16.80;92.70;;;;;;6097199;23;19905;-73
2023/11/06 10:51:53;;;;;;;;;;;17.00;92.90;;;;;;6071467;23;20336;-73
2023/11/06 10:54:19;;;;;;;;;;;16.90;92.90;;;;;;6096488;23;20201;-73
2023/11/06 10:56:46;;;;;;;;;;;16.80;92.70;;;;;;6097222;23;20188;-74
2023/11/06 10:59:14;;;;;;;;;;;16.90;92.90;;;;;;6096943;23;19909;-74
2023/11/06 11:01:40;;;;;;;;;;;16.80;92.60;;;;;;6096604;23;19901;-74
2023/11/06 11:04:10;;;;;;;;;;;16.80;92.90;;;;;;6096661;23;19988;-73
2023/11/06 11:06:39;;;;;;;;;;;16.80;92.80;;;;;;6097373;23;20254;-77
2023/11/06 11:09:05;;;;;;;;;;;16.90;92.90;;;;;;6097095;23;19953;-77
2023/11/06 11:11:31;;;;;;;;;;;17.60;92.90;;;;;;6097193;23;19901;-77
2023/11/06 11:13:57;;;;;;;;;;;16.90;92.90;;;;;;6097153;23;19908;-77
2023/11/06 11:16:40;;;;;;;;;;;16.70;92.70;;;;;;6097205;23;20285;-77
2023/11/06 11:19:19;;;;;;;;;;;16.80;90.40;;;;;;6096964;23;19901;-78
2023/11/06 11:22:04;;;;;;;;;;;16.80;90.40;;;;;;6097123;23;19983;-77
2023/11/06 11:24:45;;;;;;;;;;;16.80;90.50;;;;;;6096257;23;19909;-79
2023/11/06 11:27:15;;;;;;;;;;;16.70;90.30;;;;;;6096635;23;19908;-80
2023/11/06 11:30:01;;;;;;;;;;;16.80;90.40;;;;;;6102409;23;19908;-78
2023/11/06 11:32:30;;;;;;;;;;;16.80;92.70;;;;;;6096151;23;20309;-79
2023/11/06 11:35:19;;;;;;;;;;;16.90;90.30;;;;;;6097803;23;19901;-79
2023/11/06 11:37:53;;;;;;;;;;;16.90;92.50;;;;;;6098300;23;19911;-79
2023/11/06 11:40:18;;;;;;;;;;;15.60;89.60;;;;;;6101246;23;19901;-77
2023/11/06 11:42:44;;;;;;;;;;;16.90;92.50;;;;;;6102926;23;19957;-77
2023/11/06 11:45:12;;;;;;;;;;;16.90;92.60;;;;;;6103123;23;19909;-77
2023/11/06 11:47:47;;;;;;;;;;;16.70;91.80;;;;;;6100105;23;19901;-75
2023/11/06 11:50:36;;;;;;;;;;;17.00;90.30;;;;;;6098756;23;19901;-76
2023/11/06 11:53:02;;;;;;;;;;;16.90;90.20;;;;;;6108358;23;19901;-77
2023/11/06 11:55:30;;;;;;;;;;;16.90;92.80;;;;;;6098509;23;19908;-77
2023/11/06 11:58:05;;;;;;;;;;;16.90;92.90;;;;;;6100307;23;19947;-74
2023/11/06 12:00:33;;;;;;;;;;;16.90;90.30;;;;;;6101768;23;19901;-77
2023/11/06 12:03:09;;;;;;;;;;;16.80;92.40;;;;;;6104542;23;19913;-76
2023/11/06 12:05:36;;;;;;;;;;;17.00;90.30;;;;;;6105483;23;19940;-75
2023/11/06 12:08:19;;;;;;;;;;;16.80;92.60;;;;;;6098493;23;19905;-73
2023/11/06 12:10:46;;;;;;;;;;;16.90;90.40;;;;;;6108050;23;19905;-71
2023/11/06 12:13:12;;;;;;;;;;;16.90;92.40;;;;;;6107530;23;20356;-73
2023/11/06 12:15:38;;;;;;;;;;;16.80;92.70;;;;;;6107530;23;19908;-71
2023/11/06 12:18:06;;;;;;;;;;;16.80;92.40;;;;;;6107771;23;19909;-73
2023/11/06 12:20:32;;;;;;;;;;;16.90;90.30;;;;;;6098181;23;19909;-72
2023/11/06 12:23:00;;;;;;;;;;;16.90;92.50;;;;;;6098006;23;19901;-73
2023/11/06 12:25:33;;;;;;;;;;;16.80;92.70;;;;;;6097861;23;20298;-73
2023/11/06 12:28:02;;;;;;;;;;;16.90;90.20;;;;;;6097799;23;19902;-73
2023/11/06 12:30:28;;;;;;;;;;;16.80;90.30;;;;;;6098046;23;19956;-73
2023/11/06 12:32:54;;;;;;;;;;;16.90;92.60;;;;;;6098357;23;20066;-73
2023/11/06 12:35:20;;;;;;;;;;;16.80;92.40;;;;;;6098006;23;19980;-73
2023/11/06 12:37:46;;;;;;;;;;;16.90;92.60;;;;;;6098243;23;19915;-73
2023/11/06 12:40:12;;;;;;;;;;;16.90;92.40;;;;;;6098933;23;19932;-73
2023/11/06 12:42:39;;;;;;;;;;;17.00;92.60;;;;;;6098252;23;19957;-73
2023/11/06 12:45:23;;;;;;;;;;;17.10;92.30;;;;;;6098136;23;19988;-75
2023/11/06 12:47:50;;;;;;;;;;;17.20;91.10;;;;;;6107814;23;19901;-73
2023/11/06 12:50:17;;;;;;;;;;;17.40;91.80;;;;;;6097467;23;20206;-72
2023/11/06 12:52:43;;;;;;;;;;;17.50;91.80;;;;;;6097988;23;19932;-73
2023/11/06 12:55:10;;;;;;;;;;;17.80;91.50;;;;;;6098301;23;19904;-73
2023/11/06 12:57:37;;;;;;;;;;;17.70;91.50;;;;;;6098227;23;20277;-73
2023/11/06 13:00:05;;;;;;;;;;;17.80;91.20;;;;;;6098203;23;19904;-73
2023/11/06 13:02:33;;;;;;;;;;;17.80;91.00;;;;;;6097620;23;19928;-73
2023/11/06 13:04:59;;;;;;;;;;;17.90;91.10;;;;;;6097379;23;20264;-73
2023/11/06 13:07:25;;;;;;;;;;;18.10;91.00;;;;;;6098182;23;19953;-73
2023/11/06 13:09:51;;;;;;;;;;;18.10;90.80;;;;;;6098153;23;19912;-74
2023/11/06 13:12:17;;;;;;;;;;;18.20;90.80;;;;;;6097781;23;20245;-74
2023/11/06 13:14:45;;;;;;;;;;;18.10;90.80;;;;;;6098040;23;19908;-73
2023/11/06 13:17:13;;;;;;;;;;;18.10;90.80;;;;;;6097841;23;19905;-73
2023/11/06 13:19:39;;;;;;;;;;;18.10;90.90;;;;;;6097929;23;19901;-73
2023/11/06 13:22:04;;;;;;;;;;;18.20;90.80;;;;;;6097618;23;20352;-72
2023/11/06 13:24:30;;;;;;;;;;;18.20;90.90;;;;;;6097266;23;20344;-72
2023/11/06 13:26:56;;;;;;;;;;;18.30;90.80;;;;;;6097279;23;19901;-72
2023/11/06 13:29:23;;;;;;;;;;;18.40;90.80;;;;;;6097510;23;20384;-72
2023/11/06 13:31:48;;;;;;;;;;;18.40;90.70;;;;;;6097493;23;19901;-73
2023/11/06 13:34:14;;;;;;;;;;;18.50;90.70;;;;;;6097229;23;19901;-72
2023/11/06 13:36:48;;;;;;;;;;;18.80;90.40;;;;;;6097838;23;19985;-73
2023/11/06 13:39:19;;;;;;;;;;;18.60;90.40;;;;;;6081449;23;19901;-71
2023/11/06 13:41:46;;;;;;;;;;;18.50;90.30;;;;;;6106965;23;19908;-72
2023/11/06 13:44:12;;;;;;;;;;;18.50;90.20;;;;;;6106838;23;19913;-71
2023/11/06 13:46:37;;;;;;;;;;;18.60;90.50;;;;;;6097464;23;20257;-72
2023/11/06 13:49:04;;;;;;;;;;;18.50;90.70;;;;;;6097268;23;19933;-72
2023/11/06 13:51:30;;;;;;;;;;;18.50;90.60;;;;;;6097154;23;19901;-72
2023/11/06 13:54:03;;;;;;;;;;;18.50;90.90;;;;;;6097105;23;19933;-72
2023/11/06 13:56:35;;;;;;;;;;;18.30;90.90;;;;;;6107149;23;19905;-71
2023/11/06 13:59:01;;;;;;;;;;;18.30;88.00;;;;;;6097523;23;19901;-72
2023/11/06 14:01:45;;;;;;;;;;;18.30;91.00;;;;;;6097410;23;19901;-71
2023/11/06 14:04:12;;;;;;;;;;;18.40;88.20;;;;;;6107162;23;19913;-74
2023/11/06 14:06:38;;;;;;;;;;;18.40;91.00;;;;;;6106875;23;20245;-73
2023/11/06 14:09:26;;;;;;;;;;;18.50;91.10;;;;;;6097183;23;20264;-73
2023/11/06 14:11:52;;;;;;;;;;;18.50;89.30;;;;;;6096715;23;19905;-74
2023/11/06 14:14:18;;;;;;;;;;;18.40;91.10;;;;;;6097473;23;19949;-74
2023/11/06 14:16:46;;;;;;;;;;;18.50;91.00;;;;;;6097561;23;19901;-75
2023/11/06 14:19:13;;;;;;;;;;;18.50;91.00;;;;;;6096947;23;19956;-74
2023/11/06 14:21:39;;;;;;;;;;;18.70;91.00;;;;;;6097182;23;19901;-74
2023/11/06 14:24:05;;;;;;;;;;;18.40;91.00;;;;;;6097302;23;19920;-73